Time;durP1;ratioP1;P1;durP2;ratioP2;P2;SDS_P1;SDS_P2;PMS_P1;PMS_P2;Temp;Humidity;BMP_temperature;BMP_pressure;BME280_temperature;BME280_humidity;BME280_pressure;Samples;Min_cycle;Max_cycle;Signal;HPM_P1;HPM_P2
2023/11/29 00:01:03;;;;;;;9.73;8.00;;;-2.10;99.90;;;;;;493955;241;27616;-72
2023/11/29 00:03:05;;;;;;;10.98;8.80;;;-2.10;99.90;;;;;;494008;241;27961;-72
2023/11/29 00:05:06;;;;;;;11.27;8.52;;;-2.10;99.90;;;;;;493983;241;27260;-72
2023/11/29 00:07:07;;;;;;;9.63;8.13;;;-2.10;99.90;;;;;;493848;241;27961;-72
2023/11/29 00:09:10;;;;;;;11.15;9.38;;;-2.10;99.90;;;;;;493997;241;29115;-71
2023/11/29 00:11:10;;;;;;;8.88;7.05;;;-2.10;99.90;;;;;;493912;241;27514;-73
2023/11/29 00:13:11;;;;;;;13.90;8.43;;;-2.10;99.90;;;;;;494015;241;27520;-74
2023/11/29 00:15:12;;;;;;;12.23;9.25;;;-2.10;99.90;;;;;;493969;241;27474;-71
2023/11/29 00:17:13;;;;;;;13.07;8.60;;;-2.10;99.90;;;;;;494018;241;27536;-72
2023/11/29 00:19:15;;;;;;;16.75;10.23;;;-2.10;99.90;;;;;;494040;241;27478;-71
2023/11/29 00:21:16;;;;;;;11.15;9.02;;;-2.20;99.90;;;;;;493978;241;27384;-71
2023/11/29 00:23:17;;;;;;;10.95;7.65;;;-2.20;99.90;;;;;;493996;241;27984;-73
2023/11/29 00:25:19;;;;;;;10.48;8.55;;;-2.20;99.90;;;;;;493967;241;27930;-71
2023/11/29 00:27:21;;;;;;;14.18;10.35;;;-2.20;99.90;;;;;;493967;241;27441;-72
2023/11/29 00:29:21;;;;;;;18.70;13.80;;;-2.20;99.90;;;;;;494013;241;27603;-71
2023/11/29 00:31:22;;;;;;;33.47;18.25;;;-2.20;99.90;;;;;;493992;241;27497;-71
2023/11/29 00:33:24;;;;;;;21.98;14.90;;;-2.30;99.90;;;;;;494007;241;27445;-72
2023/11/29 00:35:25;;;;;;;17.40;11.20;;;-2.30;99.90;;;;;;493935;241;27555;-71
2023/11/29 00:37:26;;;;;;;13.85;10.30;;;-2.30;99.90;;;;;;494043;241;27969;-71
2023/11/29 00:39:27;;;;;;;14.52;9.07;;;-2.20;99.90;;;;;;494074;241;27518;-73
2023/11/29 00:41:29;;;;;;;12.32;9.02;;;-2.20;99.90;;;;;;494058;241;27279;-71
2023/11/29 00:43:31;;;;;;;13.38;9.95;;;-2.30;99.90;;;;;;494066;241;27365;-72
2023/11/29 00:45:31;;;;;;;15.88;9.60;;;-2.30;99.90;;;;;;493941;241;27164;-71
2023/11/29 00:47:32;;;;;;;17.25;9.80;;;-2.30;99.90;;;;;;493994;241;27372;-72
2023/11/29 00:49:34;;;;;;;15.43;9.55;;;-2.20;99.90;;;;;;493939;241;27697;-72
2023/11/29 00:51:35;;;;;;;14.80;8.90;;;-2.20;99.90;;;;;;494002;241;27914;-71
2023/11/29 00:53:36;;;;;;;13.23;9.55;;;-2.20;99.90;;;;;;493971;241;28035;-72
2023/11/29 00:55:37;;;;;;;13.30;9.13;;;-2.20;99.90;;;;;;494008;241;27603;-72
2023/11/29 00:57:39;;;;;;;15.38;9.55;;;-2.20;99.90;;;;;;494011;241;27373;-71
2023/11/29 00:59:40;;;;;;;14.40;9.68;;;-2.10;99.90;;;;;;494025;241;27506;-71
2023/11/29 01:01:41;;;;;;;19.37;11.12;;;-2.10;99.90;;;;;;494081;241;27135;-71
2023/11/29 01:03:42;;;;;;;26.02;12.20;;;-2.10;99.90;;;;;;494055;241;27439;-71
2023/11/29 01:05:44;;;;;;;45.17;21.90;;;-2.20;99.90;;;;;;494081;241;27987;-74
2023/11/29 01:07:45;;;;;;;60.85;25.48;;;-2.20;99.90;;;;;;494078;241;29012;-72
2023/11/29 01:09:46;;;;;;;48.08;25.12;;;-2.20;99.90;;;;;;493987;241;27490;-71
2023/11/29 01:11:47;;;;;;;52.50;26.30;;;-2.20;99.90;;;;;;493957;241;27465;-71
2023/11/29 01:13:49;;;;;;;73.43;33.30;;;-2.20;99.90;;;;;;494009;241;27575;-71
2023/11/29 01:15:50;;;;;;;79.90;31.62;;;-2.20;99.90;;;;;;494014;241;27552;-71
2023/11/29 01:17:51;;;;;;;67.35;25.10;;;-2.20;99.90;;;;;;493967;241;27475;-71
2023/11/29 01:19:52;;;;;;;69.68;25.62;;;-2.30;99.90;;;;;;494067;241;27870;-72
2023/11/29 01:21:54;;;;;;;62.25;26.95;;;-2.20;99.90;;;;;;494069;241;27533;-72
2023/11/29 01:23:55;;;;;;;86.40;29.83;;;-2.20;99.90;;;;;;494014;241;27320;-72
2023/11/29 01:25:56;;;;;;;90.93;32.15;;;-2.20;99.90;;;;;;494053;241;27385;-73
2023/11/29 01:27:58;;;;;;;79.70;31.30;;;-2.10;99.90;;;;;;494046;241;27535;-72
2023/11/29 01:29:59;;;;;;;53.20;23.70;;;-2.10;99.90;;;;;;493966;241;27189;-71
2023/11/29 01:32:00;;;;;;;54.45;23.75;;;-2.00;99.90;;;;;;494064;241;27786;-71
2023/11/29 01:34:02;;;;;;;63.58;29.40;;;-2.00;99.90;;;;;;494044;241;27490;-71
2023/11/29 01:36:03;;;;;;;76.68;30.58;;;-1.90;99.90;;;;;;493993;241;27512;-70
2023/11/29 01:38:04;;;;;;;52.65;24.80;;;-1.90;99.90;;;;;;493993;241;27522;-72
2023/11/29 01:40:07;;;;;;;57.03;23.52;;;-1.80;99.90;;;;;;494086;241;27465;-72
2023/11/29 01:42:06;;;;;;;35.72;18.15;;;-1.80;99.90;;;;;;493937;241;27507;-72
2023/11/29 01:44:08;;;;;;;55.10;24.20;;;-1.80;99.90;;;;;;494093;241;27901;-72
2023/11/29 01:46:09;;;;;;;87.18;33.78;;;-1.70;99.90;;;;;;494052;241;29081;-72
2023/11/29 01:48:10;;;;;;;73.12;28.90;;;-1.70;99.90;;;;;;493989;241;27499;-73
2023/11/29 01:50:11;;;;;;;86.45;34.63;;;-1.60;99.90;;;;;;494014;241;27476;-71
2023/11/29 01:52:14;;;;;;;83.70;30.30;;;-1.60;99.90;;;;;;493993;241;27523;-72
2023/11/29 01:54:14;;;;;;;83.15;29.12;;;-1.60;99.90;;;;;;493894;241;27546;-72
2023/11/29 01:56:16;;;;;;;69.90;27.27;;;-1.60;99.90;;;;;;493955;241;28116;-72
2023/11/29 01:58:17;;;;;;;64.87;27.50;;;-1.60;99.90;;;;;;493953;241;28071;-72
2023/11/29 02:00:18;;;;;;;58.78;26.83;;;-1.50;99.90;;;;;;493993;241;27549;-72
2023/11/29 02:02:19;;;;;;;74.55;35.83;;;-1.40;99.90;;;;;;494054;241;27506;-72
2023/11/29 02:04:20;;;;;;;69.35;33.85;;;-1.40;99.90;;;;;;494044;241;27568;-72
2023/11/29 02:06:21;;;;;;;67.30;30.02;;;-1.40;99.90;;;;;;494087;241;27485;-72
2023/11/29 02:08:23;;;;;;;82.35;37.88;;;-1.40;99.90;;;;;;494067;241;27518;-72
2023/11/29 02:10:25;;;;;;;53.13;27.42;;;-1.40;99.90;;;;;;494062;241;28071;-71
2023/11/29 02:12:25;;;;;;;88.90;38.35;;;-1.30;99.90;;;;;;493933;241;27533;-72
2023/11/29 02:14:26;;;;;;;57.58;28.62;;;-1.20;99.90;;;;;;494075;241;27516;-72
2023/11/29 02:16:28;;;;;;;53.65;24.00;;;-1.20;99.90;;;;;;494018;241;27613;-72
2023/11/29 02:18:29;;;;;;;35.33;19.62;;;-1.20;99.90;;;;;;493980;241;27485;-72
2023/11/29 02:20:30;;;;;;;33.15;17.00;;;-1.20;99.90;;;;;;493962;241;27462;-71
2023/11/29 02:22:32;;;;;;;26.95;15.80;;;-1.20;99.90;;;;;;493989;241;27951;-71
2023/11/29 02:24:33;;;;;;;22.37;13.68;;;-1.20;99.90;;;;;;494089;241;29044;-72
2023/11/29 02:26:34;;;;;;;19.83;12.37;;;-1.20;99.90;;;;;;494057;241;27525;-72
2023/11/29 02:28:35;;;;;;;20.55;11.88;;;-1.20;99.90;;;;;;493981;237;27510;-72
2023/11/29 02:30:37;;;;;;;18.92;12.23;;;-1.30;99.90;;;;;;493896;241;27608;-71
2023/11/29 02:32:38;;;;;;;19.10;11.60;;;-1.20;99.90;;;;;;493952;241;27468;-71
2023/11/29 02:34:39;;;;;;;19.87;12.27;;;-1.30;99.90;;;;;;493919;241;29170;-72
2023/11/29 02:36:40;;;;;;;17.37;12.02;;;-1.30;99.90;;;;;;493886;240;29066;-72
2023/11/29 02:38:42;;;;;;;15.93;10.35;;;-1.30;99.90;;;;;;494022;241;27587;-72
2023/11/29 02:40:43;;;;;;;19.08;11.95;;;-1.30;99.90;;;;;;494047;241;27512;-73
2023/11/29 02:42:44;;;;;;;18.87;12.75;;;-1.30;99.90;;;;;;494038;241;27532;-72
2023/11/29 02:44:45;;;;;;;15.65;10.52;;;-1.40;99.90;;;;;;494011;241;27614;-72
2023/11/29 02:46:47;;;;;;;17.85;11.50;;;-1.40;99.90;;;;;;493988;241;27888;-71
2023/11/29 02:48:48;;;;;;;22.02;12.37;;;-1.40;99.90;;;;;;494043;241;27934;-71
2023/11/29 02:50:49;;;;;;;17.25;10.98;;;-1.40;99.90;;;;;;494073;241;27506;-72
2023/11/29 02:52:50;;;;;;;18.15;11.25;;;-1.30;99.90;;;;;;494000;241;27464;-72
2023/11/29 02:54:52;;;;;;;18.00;11.05;;;-1.40;99.90;;;;;;494040;241;27495;-72
2023/11/29 02:56:53;;;;;;;18.67;11.63;;;-1.40;99.90;;;;;;494025;241;27593;-72
2023/11/29 02:58:54;;;;;;;18.65;11.50;;;-1.40;99.90;;;;;;494066;241;27635;-71
2023/11/29 03:00:55;;;;;;;16.35;10.40;;;-1.40;99.90;;;;;;494049;241;27990;-72
2023/11/29 03:02:58;;;;;;;16.17;11.20;;;-1.40;99.90;;;;;;494053;241;27585;-71
2023/11/29 03:04:58;;;;;;;18.60;11.75;;;-1.40;99.90;;;;;;493982;241;27498;-72
2023/11/29 03:06:59;;;;;;;19.42;11.88;;;-1.40;99.90;;;;;;494068;241;27697;-73
2023/11/29 03:09:01;;;;;;;19.62;12.73;;;-1.40;99.90;;;;;;494082;241;27463;-71
2023/11/29 03:11:02;;;;;;;17.98;10.77;;;-1.40;99.90;;;;;;494053;241;27506;-72
2023/11/29 03:13:03;;;;;;;18.62;11.00;;;-1.40;99.90;;;;;;494086;241;28024;-71
2023/11/29 03:15:04;;;;;;;20.37;11.82;;;-1.40;99.90;;;;;;494061;241;28080;-71
2023/11/29 03:17:06;;;;;;;20.00;12.32;;;-1.40;99.90;;;;;;493996;241;27522;-72
2023/11/29 03:19:07;;;;;;;18.60;11.88;;;-1.40;99.90;;;;;;494000;241;27462;-71
2023/11/29 03:21:08;;;;;;;22.42;13.15;;;-1.40;99.90;;;;;;493970;241;27624;-72
2023/11/29 03:23:09;;;;;;;18.50;12.48;;;-1.40;99.90;;;;;;493979;241;27502;-71
2023/11/29 03:25:11;;;;;;;24.95;14.98;;;-1.30;99.90;;;;;;493973;241;27895;-71
2023/11/29 03:27:12;;;;;;;22.02;13.75;;;-1.30;99.90;;;;;;494048;241;29045;-72
2023/11/29 03:29:13;;;;;;;19.20;11.85;;;-1.30;99.90;;;;;;494038;237;27467;-72
2023/11/29 03:31:14;;;;;;;20.48;11.70;;;-1.30;99.90;;;;;;494046;241;27553;-72
2023/11/29 03:33:16;;;;;;;23.48;13.70;;;-1.20;99.90;;;;;;494040;241;27989;-73
2023/11/29 03:35:17;;;;;;;28.27;17.25;;;-1.20;99.90;;;;;;494071;241;27953;-72
2023/11/29 03:37:18;;;;;;;25.95;15.90;;;-1.20;99.90;;;;;;493968;241;27610;-72
2023/11/29 03:39:20;;;;;;;25.95;16.10;;;-1.10;99.90;;;;;;494000;241;27563;-71
2023/11/29 03:41:21;;;;;;;20.40;12.60;;;-1.10;99.90;;;;;;493984;241;27508;-71
2023/11/29 03:43:22;;;;;;;20.00;12.60;;;-1.10;99.90;;;;;;493994;241;27530;-72
2023/11/29 03:45:23;;;;;;;22.30;13.15;;;-1.00;99.90;;;;;;493958;241;28063;-72
2023/11/29 03:47:24;;;;;;;20.50;12.88;;;-1.00;99.90;;;;;;493999;241;29145;-72
2023/11/29 03:49:26;;;;;;;20.73;13.60;;;-1.00;99.90;;;;;;493993;237;27554;-71
2023/11/29 03:51:27;;;;;;;23.73;14.50;;;-1.00;99.90;;;;;;494058;241;27489;-71
2023/11/29 03:53:28;;;;;;;20.62;11.98;;;-0.90;99.90;;;;;;494046;241;27497;-72
2023/11/29 03:55:30;;;;;;;22.27;13.98;;;-0.90;99.90;;;;;;493984;241;27482;-71
2023/11/29 03:57:31;;;;;;;25.20;13.62;;;-0.90;99.90;;;;;;493947;241;27534;-72
2023/11/29 03:59:32;;;;;;;19.40;11.65;;;-0.90;99.90;;;;;;493984;241;28028;-73
2023/11/29 04:01:33;;;;;;;19.73;12.07;;;-0.80;99.90;;;;;;494089;241;27537;-72
2023/11/29 04:03:35;;;;;;;17.27;11.85;;;-0.80;99.90;;;;;;494014;241;27616;-72
2023/11/29 04:05:36;;;;;;;16.77;11.00;;;-0.80;99.90;;;;;;494019;241;27525;-71
2023/11/29 04:07:37;;;;;;;16.20;10.65;;;-0.70;99.90;;;;;;494063;241;27524;-71
2023/11/29 04:09:38;;;;;;;23.52;15.30;;;-0.70;99.90;;;;;;494015;241;27597;-73
2023/11/29 04:11:40;;;;;;;20.70;14.13;;;-0.70;99.90;;;;;;493885;241;28078;-72
2023/11/29 04:13:41;;;;;;;19.12;12.63;;;-0.60;99.90;;;;;;493933;241;29200;-71
2023/11/29 04:15:42;;;;;;;70.85;36.00;;;-0.60;99.90;;;;;;493986;241;27509;-72
2023/11/29 04:17:43;;;;;;;29.80;18.50;;;-0.60;99.90;;;;;;493971;241;27490;-72
2023/11/29 04:19:45;;;;;;;27.23;16.25;;;-0.60;99.90;;;;;;493985;241;27553;-72
2023/11/29 04:21:46;;;;;;;59.08;35.20;;;-0.60;99.90;;;;;;493944;241;27490;-72
2023/11/29 04:23:47;;;;;;;31.50;19.10;;;-0.60;99.90;;;;;;493943;241;27946;-72
2023/11/29 04:25:48;;;;;;;27.33;15.30;;;-0.60;99.90;;;;;;494002;241;29050;-73
2023/11/29 04:27:50;;;;;;;20.77;13.48;;;-0.60;99.90;;;;;;493980;241;27574;-73
2023/11/29 04:29:51;;;;;;;18.00;11.85;;;-0.50;99.90;;;;;;494029;241;27509;-72
2023/11/29 04:31:52;;;;;;;16.40;11.38;;;-0.50;99.90;;;;;;494061;241;27605;-72
2023/11/29 04:33:53;;;;;;;31.60;21.12;;;-0.50;99.90;;;;;;494010;241;27565;-72
2023/11/29 04:35:56;;;;;;;20.30;14.25;;;-0.50;99.90;;;;;;494009;241;28045;-72
2023/11/29 04:37:56;;;;;;;17.45;11.23;;;-0.50;99.90;;;;;;493970;241;27928;-71
2023/11/29 04:39:57;;;;;;;20.37;12.48;;;-0.40;99.90;;;;;;493966;241;27501;-72
2023/11/29 04:41:59;;;;;;;18.83;11.55;;;-0.40;99.90;;;;;;494084;241;27520;-74
2023/11/29 04:44:00;;;;;;;21.80;13.60;;;-0.40;99.90;;;;;;493982;241;27453;-72
2023/11/29 04:46:01;;;;;;;23.30;13.98;;;-0.40;99.90;;;;;;493989;241;27520;-71
2023/11/29 04:48:02;;;;;;;23.65;14.38;;;-0.40;99.90;;;;;;494012;241;27489;-71
2023/11/29 04:50:04;;;;;;;20.35;13.45;;;-0.40;99.90;;;;;;494072;241;28020;-72
2023/11/29 04:52:05;;;;;;;17.27;11.52;;;-0.40;99.90;;;;;;493988;241;27517;-72
2023/11/29 04:54:06;;;;;;;30.37;18.08;;;-0.40;99.90;;;;;;493983;241;27529;-72
2023/11/29 04:56:08;;;;;;;23.65;14.80;;;-0.40;99.90;;;;;;493988;241;27496;-72
2023/11/29 04:58:09;;;;;;;21.52;14.10;;;-0.40;99.90;;;;;;493970;241;27541;-73
2023/11/29 05:00:10;;;;;;;21.30;13.13;;;-0.40;99.90;;;;;;493999;241;27491;-72
2023/11/29 05:02:11;;;;;;;37.33;22.98;;;-0.40;99.90;;;;;;493970;241;28057;-72
2023/11/29 05:04:13;;;;;;;64.82;33.80;;;-0.30;99.90;;;;;;493994;241;28015;-71
2023/11/29 05:06:14;;;;;;;42.25;24.48;;;-0.30;99.90;;;;;;494014;241;27510;-72
2023/11/29 05:08:15;;;;;;;34.55;19.00;;;-0.30;99.90;;;;;;494083;241;27657;-73
2023/11/29 05:10:16;;;;;;;27.23;14.75;;;-0.30;99.90;;;;;;494101;241;27452;-72
2023/11/29 05:12:17;;;;;;;26.10;16.98;;;-0.30;99.90;;;;;;494117;241;27509;-72
2023/11/29 05:14:19;;;;;;;23.08;14.00;;;-0.20;99.90;;;;;;494001;241;28834;-72
2023/11/29 05:16:20;;;;;;;26.08;17.12;;;-0.30;99.90;;;;;;494054;237;28131;-71
2023/11/29 05:18:21;;;;;;;21.95;13.80;;;-0.20;99.90;;;;;;494092;241;27571;-72
2023/11/29 05:20:22;;;;;;;19.25;12.37;;;-0.20;99.90;;;;;;494045;241;27449;-72
2023/11/29 05:22:24;;;;;;;28.75;18.10;;;-0.20;99.90;;;;;;494089;241;27458;-72
2023/11/29 05:24:25;;;;;;;23.08;13.38;;;-0.20;99.90;;;;;;494051;241;27520;-73
2023/11/29 05:26:26;;;;;;;19.48;12.20;;;-0.10;99.90;;;;;;494057;241;27461;-72
2023/11/29 05:28:27;;;;;;;21.10;12.70;;;-0.20;99.90;;;;;;493997;241;27983;-73
2023/11/29 05:30:29;;;;;;;19.45;12.63;;;-0.10;99.90;;;;;;493998;241;27465;-72
2023/11/29 05:32:30;;;;;;;29.50;17.02;;;-0.10;99.90;;;;;;493991;241;27502;-71
2023/11/29 05:34:31;;;;;;;33.38;20.85;;;-0.10;99.90;;;;;;494126;241;27613;-75
2023/11/29 05:36:33;;;;;;;25.65;16.50;;;-0.10;99.90;;;;;;494092;241;27565;-72
2023/11/29 05:38:34;;;;;;;25.20;14.57;;;-0.10;99.90;;;;;;494063;241;27519;-72
2023/11/29 05:40:35;;;;;;;23.60;13.82;;;-0.10;99.90;;;;;;493999;241;28702;-72
2023/11/29 05:42:38;;;;;;;28.87;14.82;;;0.00;99.90;;;;;;493990;241;27958;-72
2023/11/29 05:44:38;;;;;;;22.55;14.13;;;0.00;99.90;;;;;;493870;241;27510;-72
2023/11/29 05:46:39;;;;;;;20.30;12.35;;;0.00;99.90;;;;;;493982;241;27474;-72
2023/11/29 05:48:40;;;;;;;33.40;19.50;;;0.00;99.90;;;;;;494003;241;27520;-72
2023/11/29 05:50:41;;;;;;;26.23;16.33;;;0.00;99.90;;;;;;494048;241;27538;-74
2023/11/29 05:52:43;;;;;;;21.35;13.55;;;0.00;99.90;;;;;;494103;241;27478;-72
2023/11/29 05:54:44;;;;;;;35.05;20.90;;;0.10;99.90;;;;;;493981;241;27984;-72
2023/11/29 05:56:45;;;;;;;23.20;15.45;;;0.10;99.90;;;;;;493970;241;27979;-71
2023/11/29 05:58:46;;;;;;;24.85;15.77;;;0.00;99.90;;;;;;494000;241;27515;-72
2023/11/29 06:00:48;;;;;;;30.55;20.12;;;0.00;99.90;;;;;;494036;241;27588;-73
2023/11/29 06:02:49;;;;;;;28.58;16.58;;;0.10;99.90;;;;;;494011;239;27477;-71
2023/11/29 06:04:50;;;;;;;28.35;19.62;;;0.10;99.90;;;;;;494103;237;27608;-72
2023/11/29 06:06:51;;;;;;;22.33;12.80;;;0.10;99.90;;;;;;493967;241;27509;-73
2023/11/29 06:08:53;;;;;;;22.75;15.05;;;0.10;99.90;;;;;;493996;241;27513;-72
2023/11/29 06:10:54;;;;;;;38.17;24.17;;;0.10;99.90;;;;;;493978;241;28092;-72
2023/11/29 06:12:56;;;;;;;22.15;13.80;;;0.10;99.90;;;;;;493959;241;29090;-72
2023/11/29 06:14:56;;;;;;;23.17;14.75;;;0.10;99.90;;;;;;493933;241;27525;-72
2023/11/29 06:16:58;;;;;;;20.67;13.25;;;0.10;99.90;;;;;;493932;241;27505;-71
2023/11/29 06:18:59;;;;;;;19.12;12.18;;;0.10;99.90;;;;;;494012;241;27584;-72
2023/11/29 06:21:04;;;;;;;23.55;15.60;;;0.10;99.90;;;;;;493991;241;27526;-72
2023/11/29 06:23:03;;;;;;;16.17;11.40;;;0.10;99.90;;;;;;493662;237;27484;-72
2023/11/29 06:25:04;;;;;;;17.27;11.63;;;0.20;99.90;;;;;;493892;241;27496;-72
2023/11/29 06:27:04;;;;;;;16.48;10.93;;;0.20;99.90;;;;;;493872;241;28009;-73
2023/11/29 06:29:05;;;;;;;16.90;12.00;;;0.20;99.90;;;;;;493985;241;29243;-72
2023/11/29 06:31:09;;;;;;;20.37;13.00;;;0.20;99.90;;;;;;493994;241;27537;-72
2023/11/29 06:33:10;;;;;;;18.77;10.95;;;0.20;99.90;;;;;;493996;241;27968;-72
2023/11/29 06:35:12;;;;;;;16.35;11.15;;;0.20;99.90;;;;;;494002;241;27893;-72
2023/11/29 06:37:13;;;;;;;20.80;12.07;;;0.30;99.90;;;;;;494069;241;27588;-72
2023/11/29 06:39:15;;;;;;;18.80;10.73;;;0.20;99.90;;;;;;494073;241;27526;-75
2023/11/29 06:41:15;;;;;;;17.67;11.30;;;0.30;99.90;;;;;;494050;241;27492;-71
2023/11/29 06:43:17;;;;;;;17.40;11.85;;;0.30;99.90;;;;;;493891;241;27533;-72
2023/11/29 06:45:19;;;;;;;19.02;11.57;;;0.20;99.90;;;;;;494071;241;27481;-73
2023/11/29 06:47:19;;;;;;;19.73;12.95;;;0.30;99.90;;;;;;494034;241;27452;-72
2023/11/29 06:49:20;;;;;;;18.20;10.95;;;0.30;99.90;;;;;;493994;241;27951;-73
2023/11/29 06:51:22;;;;;;;20.75;12.60;;;0.30;99.90;;;;;;493920;241;27928;-72
2023/11/29 06:53:23;;;;;;;19.83;12.85;;;0.30;99.90;;;;;;494049;241;27616;-73
2023/11/29 06:55:24;;;;;;;18.35;12.00;;;0.30;99.90;;;;;;494095;241;27513;-72
2023/11/29 06:57:26;;;;;;;25.10;14.35;;;0.30;99.90;;;;;;494019;241;27497;-72
2023/11/29 06:59:27;;;;;;;22.35;13.55;;;0.30;99.90;;;;;;494067;239;27628;-72
2023/11/29 07:01:28;;;;;;;47.33;23.33;;;0.30;99.90;;;;;;494075;241;27465;-72
2023/11/29 07:03:29;;;;;;;17.37;11.57;;;0.30;99.90;;;;;;493951;241;27509;-72
2023/11/29 07:05:31;;;;;;;18.30;11.15;;;0.30;99.90;;;;;;494016;241;28025;-72
2023/11/29 07:07:32;;;;;;;18.42;11.90;;;0.30;99.90;;;;;;493988;241;27988;-72
2023/11/29 07:09:33;;;;;;;18.08;12.10;;;0.40;99.90;;;;;;493994;241;27490;-72
2023/11/29 07:11:37;;;;;;;20.30;14.70;;;0.40;99.90;;;;;;493956;241;27527;-72
2023/11/29 07:13:38;;;;;;;18.50;12.00;;;0.40;99.90;;;;;;493979;241;27937;-72
2023/11/29 07:15:40;;;;;;;19.92;13.45;;;0.40;99.90;;;;;;494094;241;27938;-72
2023/11/29 07:17:41;;;;;;;17.10;11.20;;;0.40;99.90;;;;;;493973;237;27512;-74
2023/11/29 07:19:42;;;;;;;17.80;12.30;;;0.30;99.90;;;;;;493977;241;27478;-72
2023/11/29 07:21:43;;;;;;;33.65;22.20;;;0.40;99.90;;;;;;493832;241;27500;-72
2023/11/29 07:23:45;;;;;;;17.23;11.02;;;0.30;99.90;;;;;;494005;241;27581;-72
2023/11/29 07:25:46;;;;;;;12.60;9.45;;;0.40;99.90;;;;;;494009;241;27635;-72
2023/11/29 07:27:47;;;;;;;13.88;10.05;;;0.40;99.90;;;;;;494005;237;27599;-72
2023/11/29 07:29:48;;;;;;;14.60;10.20;;;0.40;99.90;;;;;;493984;239;27921;-72
2023/11/29 07:31:53;;;;;;;14.05;10.60;;;0.40;99.90;;;;;;493955;241;27984;-71
2023/11/29 07:33:51;;;;;;;16.40;10.52;;;0.40;99.90;;;;;;493687;241;27597;-74
2023/11/29 07:35:52;;;;;;;14.02;10.10;;;0.40;99.90;;;;;;493975;241;27492;-72
2023/11/29 07:37:53;;;;;;;13.57;9.88;;;0.40;99.90;;;;;;493970;241;27593;-72
2023/11/29 07:39:55;;;;;;;15.05;10.48;;;0.40;99.90;;;;;;493977;241;27583;-73
2023/11/29 07:41:56;;;;;;;13.25;9.45;;;0.40;99.90;;;;;;493992;241;27569;-71
2023/11/29 07:43:57;;;;;;;12.93;9.60;;;0.40;99.90;;;;;;493986;241;27613;-73
2023/11/29 07:45:58;;;;;;;22.37;15.68;;;0.40;99.90;;;;;;493989;241;27872;-72
2023/11/29 07:48:01;;;;;;;17.77;11.75;;;0.30;99.90;;;;;;493960;241;27978;-72
2023/11/29 07:50:01;;;;;;;19.23;12.35;;;0.30;99.90;;;;;;494006;241;28722;-72
2023/11/29 07:52:02;;;;;;;16.85;11.68;;;0.30;99.90;;;;;;494064;241;27549;-73
2023/11/29 07:54:03;;;;;;;18.42;14.00;;;0.30;99.90;;;;;;493945;241;27488;-72
2023/11/29 07:56:05;;;;;;;20.90;12.55;;;0.30;99.90;;;;;;494057;241;27462;-74
2023/11/29 07:58:06;;;;;;;14.55;10.68;;;0.30;99.90;;;;;;494051;241;27662;-72
2023/11/29 08:00:07;;;;;;;13.52;9.77;;;0.30;99.90;;;;;;493994;237;27533;-72
2023/11/29 08:02:08;;;;;;;18.17;12.15;;;0.20;99.90;;;;;;493992;241;28041;-72
2023/11/29 08:04:10;;;;;;;16.70;10.68;;;0.20;99.90;;;;;;493990;241;27977;-72
2023/11/29 08:06:11;;;;;;;17.60;11.77;;;0.20;99.90;;;;;;493977;237;27491;-71
2023/11/29 08:08:13;;;;;;;15.50;11.05;;;0.30;99.90;;;;;;493967;241;27599;-72
2023/11/29 08:10:13;;;;;;;16.25;10.80;;;0.30;99.90;;;;;;493982;241;27514;-74
2023/11/29 08:12:16;;;;;;;14.98;10.93;;;0.30;99.90;;;;;;494058;241;27465;-72
2023/11/29 08:14:16;;;;;;;13.27;9.80;;;0.30;99.90;;;;;;493920;241;27540;-73
2023/11/29 08:16:17;;;;;;;13.80;10.30;;;0.40;99.90;;;;;;494060;241;27561;-72
2023/11/29 08:18:18;;;;;;;14.73;10.27;;;0.30;99.90;;;;;;494079;241;28008;-72
2023/11/29 08:20:20;;;;;;;16.70;9.95;;;0.40;99.90;;;;;;493986;241;28072;-73
2023/11/29 08:22:21;;;;;;;13.25;10.40;;;0.30;99.90;;;;;;493983;241;27927;-72
2023/11/29 08:24:22;;;;;;;15.85;10.25;;;0.30;99.90;;;;;;493955;241;27537;-72
2023/11/29 08:26:23;;;;;;;16.30;11.35;;;0.30;99.90;;;;;;493990;241;27535;-72
2023/11/29 08:28:25;;;;;;;16.85;11.18;;;0.30;99.90;;;;;;494069;241;27564;-73
2023/11/29 08:30:26;;;;;;;16.12;10.75;;;0.40;99.90;;;;;;493990;241;27540;-72
2023/11/29 08:32:27;;;;;;;14.52;10.40;;;0.30;99.90;;;;;;493953;241;27480;-72
2023/11/29 08:34:29;;;;;;;16.00;11.40;;;0.40;99.90;;;;;;493985;241;28057;-72
2023/11/29 08:36:30;;;;;;;15.93;10.13;;;0.30;99.90;;;;;;494083;241;28090;-73
2023/11/29 08:38:31;;;;;;;16.55;11.55;;;0.30;99.90;;;;;;494045;241;27461;-72
2023/11/29 08:40:34;;;;;;;16.05;10.82;;;0.30;99.90;;;;;;494007;241;27542;-72
2023/11/29 08:42:34;;;;;;;15.55;11.12;;;0.40;99.90;;;;;;493888;237;27469;-73
2023/11/29 08:44:35;;;;;;;17.27;11.73;;;0.40;99.90;;;;;;494070;241;27587;-72
2023/11/29 08:46:36;;;;;;;16.15;11.43;;;0.40;99.90;;;;;;494098;241;27544;-72
2023/11/29 08:48:37;;;;;;;19.70;12.52;;;0.40;99.90;;;;;;494054;241;27469;-72
2023/11/29 08:50:40;;;;;;;19.85;12.30;;;0.40;99.90;;;;;;494053;241;27943;-72
2023/11/29 08:52:42;;;;;;;18.35;11.70;;;0.40;99.90;;;;;;493934;241;28056;-73
2023/11/29 08:54:41;;;;;;;17.85;11.38;;;0.40;99.90;;;;;;493941;239;27466;-72
2023/11/29 08:56:42;;;;;;;23.52;12.85;;;0.40;99.90;;;;;;494117;241;27572;-73
2023/11/29 08:58:48;;;;;;;18.75;11.50;;;0.40;99.90;;;;;;493982;241;27459;-72
2023/11/29 09:00:45;;;;;;;19.58;11.77;;;0.40;99.90;;;;;;493716;241;27624;-72
2023/11/29 09:02:46;;;;;;;20.48;13.55;;;0.40;99.90;;;;;;494100;241;27508;-75
2023/11/29 09:04:47;;;;;;;17.37;11.57;;;0.50;99.90;;;;;;494109;241;27570;-72
2023/11/29 09:06:49;;;;;;;18.48;12.18;;;0.50;99.90;;;;;;494051;241;27607;-73
2023/11/29 09:08:50;;;;;;;20.27;12.25;;;0.50;99.90;;;;;;493983;241;27553;-72
2023/11/29 09:10:51;;;;;;;20.70;12.50;;;0.50;99.90;;;;;;494023;240;27981;-72
2023/11/29 09:12:53;;;;;;;18.42;12.43;;;0.50;99.90;;;;;;494026;241;28012;-73
2023/11/29 09:14:57;;;;;;;16.98;12.05;;;0.50;99.90;;;;;;493987;241;27579;-72
2023/11/29 09:16:56;;;;;;;17.45;11.12;;;0.50;99.90;;;;;;493746;241;27527;-73
2023/11/29 09:18:58;;;;;;;20.00;12.10;;;0.60;99.90;;;;;;493953;241;27870;-73
2023/11/29 09:20:59;;;;;;;15.73;11.52;;;0.60;99.90;;;;;;493915;241;27468;-72
2023/11/29 09:22:59;;;;;;;15.45;11.85;;;0.50;99.90;;;;;;493926;238;27509;-72
2023/11/29 09:25:02;;;;;;;20.60;12.75;;;0.60;99.90;;;;;;493974;241;27545;-72
2023/11/29 09:27:01;;;;;;;18.52;13.15;;;0.60;99.90;;;;;;493849;241;27971;-72
2023/11/29 09:29:03;;;;;;;20.40;13.73;;;0.60;99.90;;;;;;494068;241;27981;-75
2023/11/29 09:31:05;;;;;;;21.23;13.52;;;0.60;99.90;;;;;;494035;241;27472;-72
2023/11/29 09:33:05;;;;;;;20.37;13.25;;;0.60;99.90;;;;;;493912;241;27501;-72
2023/11/29 09:35:06;;;;;;;21.30;12.93;;;0.70;99.90;;;;;;494046;241;27604;-72
2023/11/29 09:37:08;;;;;;;21.30;14.25;;;0.70;99.90;;;;;;494064;241;27465;-72
2023/11/29 09:39:14;;;;;;;22.67;14.55;;;0.70;99.90;;;;;;493979;241;27538;-72
2023/11/29 09:41:11;;;;;;;23.45;15.00;;;0.70;99.90;;;;;;493515;241;27894;-72
2023/11/29 09:43:11;;;;;;;23.90;17.35;;;0.70;99.90;;;;;;493978;241;28062;-72
2023/11/29 09:45:20;;;;;;;20.52;14.55;;;0.70;99.90;;;;;;493870;241;27516;-72
2023/11/29 09:47:14;;;;;;;19.65;14.45;;;0.70;99.90;;;;;;493387;241;27467;-72
2023/11/29 09:49:15;;;;;;;21.75;16.62;;;0.70;99.90;;;;;;493981;241;27529;-72
2023/11/29 09:51:17;;;;;;;26.12;17.92;;;0.70;99.90;;;;;;493878;241;27528;-72
2023/11/29 09:53:18;;;;;;;17.75;12.68;;;0.70;99.90;;;;;;494002;241;27616;-74
2023/11/29 09:55:19;;;;;;;19.80;12.73;;;0.70;99.90;;;;;;494095;241;28018;-73
2023/11/29 09:57:20;;;;;;;16.40;11.95;;;0.80;99.90;;;;;;494049;241;28012;-72
2023/11/29 09:59:24;;;;;;;25.88;15.43;;;0.80;99.90;;;;;;493983;237;27538;-72
2023/11/29 10:01:26;;;;;;;16.50;12.48;;;0.80;99.90;;;;;;493982;241;27604;-73
2023/11/29 10:03:27;;;;;;;16.00;12.05;;;0.80;99.90;;;;;;494053;239;27589;-72
2023/11/29 10:05:28;;;;;;;17.83;12.75;;;0.80;99.90;;;;;;494099;241;27617;-72
2023/11/29 10:07:29;;;;;;;20.33;13.93;;;0.80;99.90;;;;;;494082;241;27529;-72
2023/11/29 10:09:30;;;;;;;20.60;12.40;;;0.80;99.90;;;;;;493992;241;27615;-72
2023/11/29 10:11:32;;;;;;;19.30;13.48;;;0.80;99.90;;;;;;494002;241;27944;-72
2023/11/29 10:13:33;;;;;;;19.02;13.00;;;0.80;99.90;;;;;;494027;241;27517;-73
2023/11/29 10:15:34;;;;;;;21.17;14.87;;;0.90;99.90;;;;;;494000;241;27940;-72
2023/11/29 10:17:37;;;;;;;17.73;12.40;;;0.90;99.90;;;;;;493937;241;27962;-72
2023/11/29 10:19:37;;;;;;;20.30;11.95;;;0.90;99.90;;;;;;493905;241;28725;-71